Time;durP1;ratioP1;P1;durP2;ratioP2;P2;SDS_P1;SDS_P2;PMS_P1;PMS_P2;Temp;Humidity;BMP_temperature;BMP_pressure;BME280_temperature;BME280_humidity;BME280_pressure;Samples;Min_cycle;Max_cycle;Signal;HPM_P1;HPM_P2
2021/09/24 00:01:08;;;;;;;13.52;9.18;;;;;;;15.84;100.00;101616.28;10499994;28;20051;-58
2021/09/24 00:06:11;;;;;;;22.02;9.07;;;;;;;15.78;100.00;101614.91;10498853;28;20055;-58
2021/09/24 00:11:13;;;;;;;18.05;7.78;;;;;;;15.87;100.00;101617.84;10499886;28;20055;-59
2021/09/24 00:16:15;;;;;;;16.73;9.07;;;;;;;15.73;100.00;101622.22;10499531;28;20052;-59
2021/09/24 00:21:18;;;;;;;14.25;7.55;;;;;;;15.77;100.00;101625.56;10499800;28;20098;-58
2021/09/24 00:26:20;;;;;;;17.35;7.90;;;;;;;15.58;100.00;101624.13;10499122;28;20051;-59
2021/09/24 00:31:23;;;;;;;11.80;5.22;;;;;;;15.84;100.00;101624.22;10498959;28;20054;-59
2021/09/24 00:36:25;;;;;;;12.57;6.53;;;;;;;15.76;100.00;101618.59;10498635;28;20480;-58
2021/09/24 00:41:27;;;;;;;9.07;5.97;;;;;;;15.61;100.00;101610.69;10498629;28;20137;-59
2021/09/24 00:46:30;;;;;;;15.38;6.65;;;;;;;15.56;100.00;101602.22;10498348;28;20056;-59
2021/09/24 00:51:45;;;;;;;11.52;6.10;;;;;;;15.49;100.00;101608.03;10498408;28;20044;-59
2021/09/24 00:56:47;;;;;;;15.48;7.00;;;;;;;15.49;100.00;101613.31;10498259;28;20392;-58
2021/09/24 01:01:50;;;;;;;14.90;6.97;;;;;;;15.54;100.00;101596.22;10498294;28;20055;-59
2021/09/24 01:06:53;;;;;;;8.98;5.43;;;;;;;15.48;100.00;101601.03;10498248;28;20055;-58
2021/09/24 01:11:55;;;;;;;8.13;5.78;;;;;;;15.52;100.00;101589.34;10497829;28;20087;-59
2021/09/24 01:16:59;;;;;;;10.10;5.72;;;;;;;15.55;100.00;101597.91;10497576;28;20045;-59
2021/09/24 01:22:01;;;;;;;15.65;7.20;;;;;;;15.59;100.00;101596.75;10496680;28;20041;-59
2021/09/24 01:27:04;;;;;;;10.75;5.20;;;;;;;15.48;100.00;101598.41;10497957;28;20060;-59
2021/09/24 01:32:07;;;;;;;13.27;5.53;;;;;;;15.61;100.00;101599.28;10496531;28;20056;-58
2021/09/24 01:37:09;;;;;;;13.88;7.30;;;;;;;15.58;100.00;101588.94;10496644;28;20412;-59
2021/09/24 01:42:12;;;;;;;10.88;4.45;;;;;;;15.52;100.00;101586.72;10497416;28;20049;-60
2021/09/24 01:47:14;;;;;;;10.05;5.07;;;;;;;15.49;100.00;101589.56;10498093;28;20053;-58
2021/09/24 01:52:16;;;;;;;10.27;4.47;;;;;;;15.44;100.00;101587.22;10497277;28;20045;-58
2021/09/24 01:57:19;;;;;;;13.73;5.70;;;;;;;15.36;100.00;101579.78;10501539;28;20044;-59
2021/09/24 02:02:21;;;;;;;15.88;5.07;;;;;;;15.20;100.00;101577.31;10505039;28;20131;-58
2021/09/24 02:07:25;;;;;;;11.65;4.93;;;;;;;15.50;100.00;101575.38;10504702;28;20453;-59
2021/09/24 02:12:27;;;;;;;11.65;3.78;;;;;;;15.55;100.00;101566.25;10504426;28;20047;-59
2021/09/24 02:17:29;;;;;;;16.27;5.18;;;;;;;15.48;100.00;101572.84;10504183;28;20381;-59
2021/09/24 02:22:32;;;;;;;11.05;3.85;;;;;;;15.39;100.00;101565.56;10503090;28;20044;-59
2021/09/24 02:27:34;;;;;;;11.85;3.55;;;;;;;15.42;100.00;101566.19;10503887;28;20419;-59
2021/09/24 02:32:37;;;;;;;12.27;3.90;;;;;;;15.39;100.00;101558.47;10503601;28;20507;-59
2021/09/24 02:37:39;;;;;;;10.43;3.78;;;;;;;15.59;100.00;101551.03;10503768;28;20048;-59
2021/09/24 02:42:41;;;;;;;13.70;3.70;;;;;;;15.39;100.00;101555.00;10503407;28;20055;-58
2021/09/24 02:47:44;;;;;;;11.90;4.43;;;;;;;15.23;100.00;101553.38;10503260;28;20052;-59
2021/09/24 02:52:46;;;;;;;8.40;4.50;;;;;;;15.40;100.00;101544.34;10503339;28;20041;-59
2021/09/24 02:57:48;;;;;;;9.23;6.28;;;;;;;15.29;100.00;101544.19;10502776;28;20059;-60
2021/09/24 03:02:51;;;;;;;11.20;7.18;;;;;;;15.21;100.00;101541.22;10502581;28;20522;-59
2021/09/24 03:07:54;;;;;;;18.10;9.38;;;;;;;15.23;100.00;101534.91;10502257;28;20105;-59
2021/09/24 03:12:56;;;;;;;21.23;12.90;;;;;;;15.28;100.00;101542.53;10502946;28;20052;-59
2021/09/24 03:17:58;;;;;;;18.10;14.00;;;;;;;15.20;100.00;101536.91;10501855;28;20511;-59
2021/09/24 03:23:01;;;;;;;22.40;16.67;;;;;;;15.37;100.00;101539.25;10501406;28;20044;-59
2021/09/24 03:28:03;;;;;;;17.98;13.48;;;;;;;15.42;100.00;101539.81;10501302;28;20501;-59
2021/09/24 03:33:06;;;;;;;30.38;21.45;;;;;;;15.30;100.00;101532.72;10501395;28;20076;-58
2021/09/24 03:38:08;;;;;;;31.55;21.65;;;;;;;15.26;100.00;101533.00;10501599;28;20053;-58
2021/09/24 03:43:10;;;;;;;28.35;19.83;;;;;;;15.36;100.00;101518.25;10501043;28;20045;-59
2021/09/24 03:48:13;;;;;;;35.83;23.83;;;;;;;15.23;100.00;101528.75;10500750;28;20052;-59
2021/09/24 03:53:15;;;;;;;57.97;32.40;;;;;;;15.13;100.00;101519.75;10500626;28;20457;-59
2021/09/24 03:58:18;;;;;;;44.17;29.83;;;;;;;15.20;100.00;101532.47;10500276;28;20049;-59
2021/09/24 04:03:21;;;;;;;42.13;28.20;;;;;;;15.05;100.00;101536.94;10499303;28;20052;-59
2021/09/24 04:08:23;;;;;;;54.92;34.55;;;;;;;15.07;100.00;101531.56;10499977;28;20044;-59
2021/09/24 04:13:26;;;;;;;38.75;27.65;;;;;;;15.12;100.00;101526.00;10499625;28;20477;-58
2021/09/24 04:18:28;;;;;;;61.80;38.05;;;;;;;15.16;100.00;101528.34;10498676;28;20067;-59
2021/09/24 04:23:30;;;;;;;63.95;39.08;;;;;;;15.09;100.00;101534.09;10499837;28;20052;-58
2021/09/24 04:28:33;;;;;;;70.60;39.47;;;;;;;15.39;100.00;101533.88;10499158;28;20469;-58
2021/09/24 04:33:35;;;;;;;72.88;41.20;;;;;;;15.24;100.00;101548.94;10499544;28;20048;-59
2021/09/24 04:38:37;;;;;;;73.82;41.95;;;;;;;15.40;100.00;101540.88;10498600;28;20052;-59
2021/09/24 04:43:40;;;;;;;78.18;43.35;;;;;;;15.37;100.00;101541.91;10499404;28;20044;-58
2021/09/24 04:48:42;;;;;;;66.25;37.83;;;;;;;15.41;100.00;101540.75;10498268;28;20443;-59
2021/09/24 04:53:44;;;;;;;74.85;42.85;;;;;;;15.40;100.00;101546.16;10498690;28;20063;-58
2021/09/24 04:58:47;;;;;;;81.57;43.78;;;;;;;15.36;100.00;101544.63;10498371;28;20051;-58
2021/09/24 05:03:49;;;;;;;119.22;53.97;;;;;;;15.32;100.00;101545.81;10498193;28;20416;-59
2021/09/24 05:08:51;;;;;;;95.28;47.15;;;;;;;15.42;100.00;101541.59;10497986;28;20045;-58
2021/09/24 05:13:54;;;;;;;97.28;48.28;;;;;;;15.57;100.00;101532.66;10498133;28;20047;-59
2021/09/24 05:19:01;;;;;;;74.30;39.30;;;;;;;15.69;100.00;101531.00;10496545;28;20048;-59
2021/09/24 05:24:04;;;;;;;71.35;38.30;;;;;;;15.68;100.00;101539.03;10496924;28;20041;-57
2021/09/24 05:29:07;;;;;;;85.88;46.30;;;;;;;15.41;100.00;101535.47;10498664;28;20052;-60
2021/09/24 05:34:09;;;;;;;73.82;42.40;;;;;;;15.45;100.00;101530.00;10506078;28;20045;-59
2021/09/24 05:39:12;;;;;;;96.57;46.97;;;;;;;15.65;100.00;101537.44;10504616;28;20052;-58
2021/09/24 05:44:14;;;;;;;78.35;42.70;;;;;;;15.64;100.00;101538.38;10505742;28;20053;-58
2021/09/24 05:49:17;;;;;;;105.00;48.80;;;;;;;15.68;100.00;101539.03;10505908;28;20055;-59
2021/09/24 05:54:20;;;;;;;93.00;47.30;;;;;;;15.79;100.00;101526.81;10504248;28;20048;-58
2021/09/24 05:59:22;;;;;;;78.13;44.05;;;;;;;15.59;100.00;101532.56;10505049;28;20049;-58
2021/09/24 06:04:24;;;;;;;69.43;39.30;;;;;;;15.67;100.00;101534.69;10504875;28;20420;-58
2021/09/24 06:09:27;;;;;;;63.50;36.67;;;;;;;15.62;100.00;101540.28;10504681;28;20045;-59
2021/09/24 06:14:29;;;;;;;73.95;40.25;;;;;;;15.64;100.00;101535.75;10504491;28;20044;-59
2021/09/24 06:19:31;;;;;;;55.22;34.10;;;;;;;15.77;100.00;101535.81;10504107;28;20428;-59
2021/09/24 06:24:35;;;;;;;61.25;36.80;;;;;;;15.62;100.00;101540.28;10503251;28;20048;-59
2021/09/24 06:29:37;;;;;;;60.17;35.55;;;;;;;15.86;100.00;101532.53;10504563;28;20112;-58
2021/09/24 06:34:41;;;;;;;55.15;35.30;;;;;;;15.77;100.00;101536.63;10503732;28;20052;-58
2021/09/24 06:39:44;;;;;;;74.63;41.35;;;;;;;15.51;100.00;101540.97;10503480;28;20051;-59
2021/09/24 06:44:46;;;;;;;77.47;41.55;;;;;;;15.73;100.00;101544.84;10502760;28;20056;-59
2021/09/24 06:49:48;;;;;;;80.15;43.42;;;;;;;15.69;100.00;101546.84;10503055;28;20052;-58
2021/09/24 06:54:51;;;;;;;87.97;45.10;;;;;;;15.78;100.00;101562.09;10501887;28;20049;-59
2021/09/24 06:59:53;;;;;;;86.50;42.70;;;;;;;15.75;100.00;101548.22;10502853;28;20045;-59
2021/09/24 07:04:55;;;;;;;93.90;46.40;;;;;;;15.78;100.00;101548.91;10502880;28;20049;-59
2021/09/24 07:09:58;;;;;;;66.75;38.17;;;;;;;15.94;100.00;101539.94;10502299;28;20055;-58
2021/09/24 07:15:01;;;;;;;101.07;47.00;;;;;;;16.00;100.00;101538.66;10502505;28;20110;-59
2021/09/24 07:20:05;;;;;;;87.45;43.78;;;;;;;15.96;100.00;101536.22;10501855;28;20051;-58
2021/09/24 07:25:08;;;;;;;82.57;41.35;;;;;;;15.93;100.00;101520.59;10501672;28;20511;-59
2021/09/24 07:30:11;;;;;;;66.03;34.33;;;;;;;16.29;100.00;101532.22;10501320;28;20403;-58
2021/09/24 07:35:17;;;;;;;80.43;40.25;;;;;;;16.27;100.00;101539.41;10501695;28;20508;-58
2021/09/24 07:40:19;;;;;;;63.92;33.55;;;;;;;16.35;100.00;101529.13;10501030;28;20048;-59
2021/09/24 07:45:23;;;;;;;79.97;39.63;;;;;;;16.36;100.00;101540.56;10501008;28;20381;-59
2021/09/24 07:50:25;;;;;;;76.65;34.88;;;;;;;16.12;100.00;101553.66;10500523;28;20122;-59
2021/09/24 07:55:28;;;;;;;79.25;39.47;;;;;;;16.22;100.00;101559.16;10499613;28;20052;-59
2021/09/24 08:00:31;;;;;;;75.43;38.35;;;;;;;16.29;100.00;101549.84;10500130;28;20048;-58
2021/09/24 08:05:33;;;;;;;65.40;33.33;;;;;;;16.56;100.00;101555.00;10500056;28;20389;-59
2021/09/24 08:10:36;;;;;;;85.22;40.55;;;;;;;16.31;100.00;101555.88;10499737;28;20559;-58
2021/09/24 08:15:43;;;;;;;66.57;35.35;;;;;;;16.90;100.00;101560.56;10499832;28;20111;-59
2021/09/24 08:20:45;;;;;;;66.47;36.88;;;;;;;16.97;100.00;101567.09;10498419;28;20049;-59
2021/09/24 08:25:48;;;;;;;69.53;35.45;;;;;;;17.17;100.00;101563.00;10499717;28;20045;-59
2021/09/24 08:30:50;;;;;;;63.50;35.88;;;;;;;17.34;100.00;101563.56;10498753;28;20057;-58
2021/09/24 08:35:53;;;;;;;51.92;32.85;;;;;;;17.35;100.00;101565.25;10499062;28;20382;-59
2021/09/24 08:40:55;;;;;;;53.67;30.85;;;;;;;17.81;100.00;101561.81;10498840;28;20428;-59
2021/09/24 08:45:58;;;;;;;51.92;32.72;;;;;;;18.04;100.00;101568.03;10499498;28;20055;-59
2021/09/24 08:51:01;;;;;;;47.63;30.95;;;;;;;17.87;99.73;101565.81;10498591;28;20041;-58
2021/09/24 08:56:04;;;;;;;44.88;30.25;;;;;;;17.91;100.00;101564.63;10498446;28;20044;-58
2021/09/24 09:01:07;;;;;;;48.90;31.95;;;;;;;18.08;100.00;101566.81;10498399;28;20051;-59
2021/09/24 09:06:12;;;;;;;43.50;29.75;;;;;;;18.15;97.35;101564.53;10497998;28;20177;-59
2021/09/24 09:11:18;;;;;;;44.63;30.13;;;;;;;17.87;99.33;101565.81;10497906;28;20484;-58
2021/09/24 09:16:30;;;;;;;40.95;27.80;;;;;;;17.65;98.69;101559.47;10498008;28;20044;-58
2021/09/24 09:21:32;;;;;;;37.25;27.10;;;;;;;18.27;96.01;101552.97;10498105;28;20048;-59
2021/09/24 09:26:34;;;;;;;39.92;27.73;;;;;;;17.89;97.66;101556.81;10496985;28;20048;-58
2021/09/24 09:31:37;;;;;;;43.60;28.15;;;;;;;18.55;94.23;101549.00;10498121;28;20081;-59
2021/09/24 09:36:42;;;;;;;43.65;29.98;;;;;;;18.55;93.42;101548.16;10497927;28;20057;-59
2021/09/24 09:41:51;;;;;;;48.50;31.38;;;;;;;18.33;94.59;101543.72;10497232;28;20047;-58
2021/09/24 09:46:54;;;;;;;36.95;28.38;;;;;;;18.61;92.95;101544.19;10497707;28;20045;-58
2021/09/24 09:52:08;;;;;;;39.20;28.35;;;;;;;18.60;92.23;101542.50;10497294;28;20045;-59
2021/09/24 09:57:11;;;;;;;39.40;27.65;;;;;;;18.82;91.99;101538.97;10497397;28;20049;-58
2021/09/24 10:02:19;;;;;;;30.05;24.25;;;;;;;18.97;91.00;101535.09;10496857;28;20049;-58
2021/09/24 10:07:35;;;;;;;34.22;28.35;;;;;;;19.22;89.62;101533.09;10497501;28;20045;-59
2021/09/24 10:12:38;;;;;;;36.85;26.63;;;;;;;19.53;85.90;101526.06;10496845;28;20527;-58
2021/09/24 10:17:42;;;;;;;38.53;28.77;;;;;;;19.79;87.96;101520.41;10500081;28;20055;-59
2021/09/24 10:22:44;;;;;;;33.78;24.65;;;;;;;20.18;83.15;101523.28;10504136;28;20535;-58
2021/09/24 10:27:46;;;;;;;35.65;27.02;;;;;;;20.34;83.44;101512.13;10503734;28;20056;-58
2021/09/24 10:32:59;;;;;;;35.42;27.85;;;;;;;21.11;80.04;101500.81;10503096;28;20044;-59
2021/09/24 10:38:09;;;;;;;27.20;23.30;;;;;;;22.26;75.59;101496.41;10503592;28;20480;-59
2021/09/24 10:43:14;;;;;;;28.05;24.35;;;;;;;22.42;71.82;101493.09;10503509;28;20040;-59
2021/09/24 10:48:17;;;;;;;29.08;24.98;;;;;;;21.32;78.99;101511.34;10503306;28;20052;-59
2021/09/24 10:53:22;;;;;;;32.17;24.73;;;;;;;21.04;80.04;101504.19;10503582;28;20424;-59
2021/09/24 10:58:27;;;;;;;29.23;26.02;;;;;;;20.65;78.26;101499.66;10502820;28;20048;-59
2021/09/24 11:03:31;;;;;;;31.25;26.23;;;;;;;21.23;78.65;101490.88;10502644;28;20053;-59
2021/09/24 11:08:33;;;;;;;31.58;26.80;;;;;;;20.75;78.24;101505.00;10502609;28;20051;-59
2021/09/24 11:13:44;;;;;;;26.02;23.20;;;;;;;21.07;79.90;101494.09;10502803;28;20052;-59
2021/09/24 11:18:49;;;;;;;;;;;;;;;20.81;78.57;101496.44;10503027;28;20048;-59
2021/09/24 11:23:53;;;;;;;29.05;21.65;;;;;;;21.14;80.63;101475.75;10502455;28;19928;-59
2021/09/24 11:29:05;;;;;;;31.52;24.85;;;;;;;20.59;80.94;101485.06;10502090;28;20052;-59
2021/09/24 11:34:07;;;;;;;30.10;22.60;;;;;;;21.15;79.01;101482.75;10501538;28;20103;-58
2021/09/24 11:39:10;;;;;;;24.02;21.33;;;;;;;20.52;78.25;101478.59;10501667;28;20519;-59
2021/09/24 11:44:12;;;;;;;28.70;21.65;;;;;;;20.11;80.17;101482.25;10500873;28;20056;-59
2021/09/24 11:49:14;;;;;;;20.55;18.05;;;;;;;20.06;80.76;101489.78;10501123;28;20048;-59
2021/09/24 11:54:21;;;;;;;23.02;18.90;;;;;;;20.13;80.68;101488.28;10501139;28;20040;-58
2021/09/24 11:59:23;;;;;;;24.85;18.52;;;;;;;20.18;80.26;101475.41;10500295;28;20123;-59
2021/09/24 12:04:25;;;;;;;20.58;18.02;;;;;;;20.06;79.65;101481.81;10500167;28;20374;-58
2021/09/24 12:09:28;;;;;;;19.67;15.73;;;;;;;20.47;80.66;101472.84;10500078;28;20102;-59
2021/09/24 12:14:32;;;;;;;18.98;16.98;;;;;;;20.37;81.17;101475.47;10500566;28;20051;-59
2021/09/24 12:19:38;;;;;;;20.52;18.10;;;;;;;21.48;73.46;101457.50;10499652;28;20048;-59
2021/09/24 12:24:45;;;;;;;15.88;14.32;;;;;;;22.36;70.50;101459.88;10499875;28;20515;-59
2021/09/24 12:29:49;;;;;;;20.27;15.65;;;;;;;21.48;71.61;101454.84;10499450;28;20053;-59
2021/09/24 12:35:01;;;;;;;22.38;17.77;;;;;;;20.71;74.53;101461.88;10499079;28;20048;-59
2021/09/24 12:40:08;;;;;;;21.13;17.83;;;;;;;20.64;78.84;101458.06;10498256;28;20511;-59
2021/09/24 12:45:21;;;;;;;22.48;17.95;;;;;;;21.30;77.70;101453.84;10498835;28;20052;-59
2021/09/24 12:50:23;;;;;;;16.98;15.27;;;;;;;21.34;74.59;101452.59;10499011;28;20051;-59
2021/09/24 12:55:26;;;;;;;19.80;15.45;;;;;;;20.80;78.74;101454.88;10497377;28;20053;-59
2021/09/24 13:00:30;;;;;;;15.77;14.15;;;;;;;21.45;75.09;101451.59;10498730;28;20500;-59
2021/09/24 13:05:33;;;;;;;14.27;12.85;;;;;;;21.02;72.31;101452.91;10498248;28;20547;-59
2021/09/24 13:10:35;;;;;;;13.50;11.82;;;;;;;20.78;74.50;101455.00;10496617;28;20522;-59
2021/09/24 13:15:38;;;;;;;13.15;11.38;;;;;;;21.28;73.44;101440.72;10497283;28;20049;-59
2021/09/24 13:20:40;;;;;;;13.82;12.45;;;;;;;20.31;76.52;101440.59;10497899;28;20086;-59
2021/09/24 13:25:43;;;;;;;13.25;10.40;;;;;;;20.61;76.47;101431.72;10498308;28;20044;-59
2021/09/24 13:30:45;;;;;;;13.95;11.73;;;;;;;22.03;72.38;101435.44;10497821;28;20131;-59
2021/09/24 13:35:48;;;;;;;14.35;11.07;;;;;;;22.59;68.40;101430.94;10497495;28;20499;-59
2021/09/24 13:40:51;;;;;;;12.10;10.98;;;;;;;22.31;70.06;101422.16;10497299;28;20415;-59
2021/09/24 13:45:53;;;;;;;15.90;12.30;;;;;;;21.44;70.36;101416.13;10498036;28;20060;-58
2021/09/24 13:50:56;;;;;;;11.50;9.52;;;;;;;22.08;72.45;101413.66;10497444;28;20044;-59
2021/09/24 13:55:58;;;;;;;14.55;11.13;;;;;;;24.18;64.77;101404.13;10505261;28;20059;-60
2021/09/24 14:01:01;;;;;;;13.63;10.77;;;;;;;24.45;59.98;101392.31;10505286;28;20048;-59
2021/09/24 14:06:04;;;;;;;12.25;11.05;;;;;;;23.93;59.94;101385.31;10503664;28;20531;-59
2021/09/24 14:11:07;;;;;;;11.95;10.63;;;;;;;24.29;58.79;101379.75;10504826;28;20048;-58
2021/09/24 14:16:09;;;;;;;17.08;12.13;;;;;;;24.29;59.33;101378.88;10504253;28;20052;-57
2021/09/24 14:21:12;;;;;;;12.25;11.15;;;;;;;22.92;62.76;101377.00;10504363;28;20041;-58
2021/09/24 14:26:14;;;;;;;14.70;11.55;;;;;;;23.03;64.40;101375.91;10504532;28;20048;-59
2021/09/24 14:31:17;;;;;;;15.80;13.40;;;;;;;22.17;63.64;101378.09;10504053;28;20056;-57
2021/09/24 14:36:19;;;;;;;16.50;13.77;;;;;;;23.10;60.04;101366.31;10503949;28;20052;-58
2021/09/24 14:41:21;;;;;;;13.05;11.65;;;;;;;23.89;59.56;101361.75;10503380;28;20047;-58
2021/09/24 14:46:24;;;;;;;11.82;10.65;;;;;;;24.73;60.85;101362.59;10503677;28;20052;-58
2021/09/24 14:51:27;;;;;;;16.58;11.00;;;;;;;23.00;63.30;101348.53;10503043;28;20049;-58
2021/09/24 14:56:29;;;;;;;12.85;10.50;;;;;;;23.72;64.69;101342.94;10502973;28;20048;-58
2021/09/24 15:01:32;;;;;;;12.32;11.13;;;;;;;22.95;63.93;101347.34;10502399;28;20079;-58
2021/09/24 15:06:37;;;;;;;11.35;9.68;;;;;;;23.96;60.46;101354.75;10502700;28;20124;-58
2021/09/24 15:11:39;;;;;;;13.45;9.52;;;;;;;24.11;58.95;101350.44;10501409;28;20102;-58
2021/09/24 15:16:43;;;;;;;11.63;9.55;;;;;;;22.60;64.49;101354.38;10502224;28;20056;-59
2021/09/24 15:21:45;;;;;;;12.45;8.60;;;;;;;23.48;62.68;101345.50;10502120;28;20044;-58
2021/09/24 15:26:48;;;;;;;11.27;7.55;;;;;;;22.77;64.59;101342.03;10501833;28;20408;-58
2021/09/24 15:31:50;;;;;;;11.10;7.85;;;;;;;22.27;65.97;101351.38;10502605;28;20059;-58
2021/09/24 15:36:53;;;;;;;8.73;7.07;;;;;;;21.47;69.72;101348.44;10500045;28;20055;-58
2021/09/24 15:41:55;;;;;;;8.73;7.15;;;;;;;21.57;69.60;101351.91;10501590;28;20051;-58
2021/09/24 15:46:57;;;;;;;7.95;6.22;;;;;;;21.62;70.58;101357.63;10500784;28;20059;-58
2021/09/24 15:52:00;;;;;;;9.13;6.15;;;;;;;21.32;72.29;101350.72;10501253;28;20055;-57
2021/09/24 15:57:03;;;;;;;11.77;5.88;;;;;;;21.17;71.64;101358.31;10500610;28;20054;-58
2021/09/24 16:02:05;;;;;;;8.57;5.45;;;;;;;21.17;70.65;101357.50;10500325;28;20052;-58
2021/09/24 16:07:08;;;;;;;12.90;5.82;;;;;;;21.10;71.94;101355.38;10500131;28;20123;-57
2021/09/24 16:12:11;;;;;;;7.90;5.03;;;;;;;20.51;76.03;101354.56;10500374;28;20059;-58
2021/09/24 16:17:13;;;;;;;10.07;4.57;;;;;;;20.27;81.36;101364.75;10498898;28;20055;-58
2021/09/24 16:22:16;;;;;;;8.05;5.05;;;;;;;20.18;82.40;101356.63;10499519;28;20048;-58
2021/09/24 16:27:18;;;;;;;6.18;4.90;;;;;;;20.13;82.22;101364.16;10499416;28;20052;-57
2021/09/24 16:32:20;;;;;;;11.23;5.55;;;;;;;20.07;78.69;101366.53;10499890;28;20056;-58
2021/09/24 16:37:42;;;;;;;8.38;4.40;;;;;;;19.80;78.68;101366.19;10498947;28;20102;-59
2021/09/24 16:42:45;;;;;;;10.52;4.53;;;;;;;19.57;79.88;101357.53;10498905;28;20044;-58
2021/09/24 16:47:47;;;;;;;7.97;4.90;;;;;;;19.44;82.20;101367.53;10497414;28;20060;-58
2021/09/24 16:52:50;;;;;;;6.20;4.78;;;;;;;19.33;81.42;101365.78;10498819;28;20056;-58
2021/09/24 16:57:52;;;;;;;6.47;4.43;;;;;;;18.80;88.59;101373.78;10498441;28;20048;-57
2021/09/24 17:02:56;;;;;;;9.68;4.20;;;;;;;18.52;89.29;101376.06;10498743;28;20051;-58
2021/09/24 17:08:00;;;;;;;4.57;4.07;;;;;;;18.24;92.04;101378.31;10498379;28;20070;-57
2021/09/24 17:13:03;;;;;;;6.68;5.05;;;;;;;18.10;95.89;101373.28;10498280;28;20052;-58
2021/09/24 17:18:05;;;;;;;10.80;6.28;;;;;;;17.99;95.52;101368.84;10498494;28;20053;-56
2021/09/24 17:23:08;;;;;;;6.93;5.50;;;;;;;17.63;98.57;101384.84;10498074;28;20045;-58
2021/09/24 17:28:12;;;;;;;9.85;5.22;;;;;;;17.38;100.00;101382.38;10503901;28;20062;-57
2021/09/24 17:33:14;;;;;;;8.68;5.20;;;;;;;17.25;99.56;101385.16;10506061;28;20054;-58
2021/09/24 17:38:16;;;;;;;11.68;5.15;;;;;;;17.14;100.00;101391.25;10506143;28;20060;-58
2021/09/24 17:43:19;;;;;;;9.10;6.00;;;;;;;17.13;100.00;101401.94;10505769;28;20045;-56
2021/09/24 17:48:22;;;;;;;6.10;5.60;;;;;;;16.98;100.00;101402.16;10505927;28;20048;-56
2021/09/24 17:53:24;;;;;;;8.10;5.28;;;;;;;17.04;100.00;101411.41;10505563;28;20045;-57
2021/09/24 17:58:26;;;;;;;6.90;4.93;;;;;;;16.82;100.00;101405.03;10505776;28;20056;-58
2021/09/24 18:03:29;;;;;;;5.32;4.70;;;;;;;16.75;100.00;101409.13;10505826;28;20051;-57
2021/09/24 18:08:31;;;;;;;5.90;4.80;;;;;;;16.80;100.00;101419.34;10504904;28;20109;-58
2021/09/24 18:13:34;;;;;;;5.03;4.13;;;;;;;16.70;100.00;101417.38;10505010;28;20045;-55
2021/09/24 18:18:36;;;;;;;8.48;5.95;;;;;;;16.70;100.00;101424.47;10504238;28;20412;-58
2021/09/24 18:23:39;;;;;;;6.10;5.53;;;;;;;16.43;100.00;101427.34;10504807;28;20052;-57
2021/09/24 18:28:46;;;;;;;9.20;5.70;;;;;;;16.39;100.00;101432.00;10504049;28;20056;-58
2021/09/24 18:33:48;;;;;;;9.98;5.68;;;;;;;16.22;100.00;101432.34;10503839;28;20408;-57
2021/09/24 18:38:50;;;;;;;7.07;5.50;;;;;;;15.94;100.00;101443.06;10502601;28;20052;-57
2021/09/24 18:43:53;;;;;;;7.45;5.60;;;;;;;15.92;100.00;101449.38;10503488;28;20503;-58
2021/09/24 18:48:55;;;;;;;7.57;5.88;;;;;;;15.87;100.00;101436.53;10503367;28;20079;-58
2021/09/24 18:53:58;;;;;;;7.63;5.30;;;;;;;15.79;100.00;101444.97;10503400;28;20041;-57
2021/09/24 18:59:00;;;;;;;5.82;4.72;;;;;;;15.70;100.00;101431.53;10502804;28;20515;-58
2021/09/24 19:04:03;;;;;;;8.15;5.55;;;;;;;15.55;100.00;101436.06;10503113;28;20044;-57
2021/09/24 19:09:05;;;;;;;6.22;5.63;;;;;;;15.58;100.00;101444.63;10503816;28;20056;-58
2021/09/24 19:14:08;;;;;;;6.50;5.90;;;;;;;15.74;100.00;101452.34;10502812;28;20056;-59
2021/09/24 19:19:10;;;;;;;7.15;6.28;;;;;;;15.58;100.00;101449.91;10502004;28;20048;-58
2021/09/24 19:24:12;;;;;;;7.35;6.20;;;;;;;15.51;100.00;101451.25;10502060;28;20492;-57
2021/09/24 19:29:15;;;;;;;9.55;6.68;;;;;;;15.93;100.00;101459.84;10501615;28;20517;-58
2021/09/24 19:34:17;;;;;;;11.70;7.05;;;;;;;16.35;100.00;101457.78;10501915;28;20055;-56
2021/09/24 19:39:20;;;;;;;10.10;6.05;;;;;;;16.15;100.00;101476.84;10500227;28;20417;-58
2021/09/24 19:44:22;;;;;;;7.63;6.03;;;;;;;16.18;100.00;101473.16;10501155;28;20485;-57
2021/09/24 19:49:25;;;;;;;7.45;6.70;;;;;;;16.33;100.00;101478.19;10501018;28;20055;-56
2021/09/24 19:54:28;;;;;;;8.65;6.53;;;;;;;16.12;100.00;101477.91;10501377;28;20078;-58
2021/09/24 19:59:31;;;;;;;7.72;6.60;;;;;;;16.43;100.00;101465.16;10500295;28;20071;-55
2021/09/24 20:04:33;;;;;;;6.75;6.03;;;;;;;16.59;100.00;101464.88;10500500;28;20048;-58
2021/09/24 20:09:35;;;;;;;8.45;5.93;;;;;;;16.76;100.00;101468.13;10500523;28;20048;-56
2021/09/24 20:14:39;;;;;;;7.03;5.43;;;;;;;16.77;100.00;101467.19;10500330;28;20045;-58
2021/09/24 20:19:41;;;;;;;6.78;4.88;;;;;;;16.98;100.00;101470.94;10499772;28;20135;-58
2021/09/24 20:24:45;;;;;;;8.75;5.47;;;;;;;17.06;99.23;101468.56;10499623;28;20044;-58
2021/09/24 20:29:47;;;;;;;5.07;4.25;;;;;;;17.16;96.70;101455.47;10500001;28;20055;-57
2021/09/24 20:34:49;;;;;;;5.15;4.15;;;;;;;17.09;97.45;101454.25;10499287;28;20055;-56
2021/09/24 20:39:52;;;;;;;6.03;5.32;;;;;;;17.06;98.44;101451.81;10499083;28;20045;-54
2021/09/24 20:44:54;;;;;;;7.82;4.95;;;;;;;17.02;98.51;101455.66;10499448;28;20047;-57
2021/09/24 20:49:57;;;;;;;5.82;5.32;;;;;;;16.98;100.00;101447.13;10499022;28;20130;-56
2021/09/24 20:54:59;;;;;;;5.20;4.80;;;;;;;17.08;98.87;101448.13;10498754;28;20048;-58
2021/09/24 21:00:04;;;;;;;6.78;5.47;;;;;;;17.06;100.00;101462.41;10497964;28;20126;-58
2021/09/24 21:05:07;;;;;;;6.38;4.97;;;;;;;17.03;100.00;101468.78;10498492;28;20045;-58
2021/09/24 21:10:12;;;;;;;7.50;5.07;;;;;;;17.08;99.38;101466.63;10498108;28;20044;-56
2021/09/24 21:15:15;;;;;;;9.23;4.78;;;;;;;17.09;99.76;101467.47;10498140;28;20420;-58
2021/09/24 21:20:18;;;;;;;4.95;4.47;;;;;;;17.09;98.33;101473.59;10497854;28;20052;-56
2021/09/24 21:25:20;;;;;;;4.93;4.50;;;;;;;17.13;99.53;101468.09;10498256;28;20041;-57
2021/09/24 21:30:23;;;;;;;8.43;4.80;;;;;;;16.99;100.00;101459.38;10498182;28;20052;-56
2021/09/24 21:35:26;;;;;;;4.10;3.90;;;;;;;17.07;97.57;101461.47;10497980;28;20044;-57
2021/09/24 21:40:29;;;;;;;5.38;4.88;;;;;;;16.89;99.75;101464.53;10497459;28;20060;-58
2021/09/24 21:45:32;;;;;;;6.20;4.55;;;;;;;16.95;100.00;101459.72;10498238;28;20071;-58
2021/09/24 21:50:34;;;;;;;5.30;4.85;;;;;;;16.92;100.00;101457.31;10497458;28;20057;-58
2021/09/24 21:55:37;;;;;;;4.97;3.90;;;;;;;16.89;100.00;101451.28;10498123;28;20045;-58
2021/09/24 22:00:39;;;;;;;5.28;4.78;;;;;;;16.86;100.00;101453.28;10497031;28;20040;-56
2021/09/24 22:05:42;;;;;;;6.90;4.20;;;;;;;16.84;100.00;101449.91;10497155;28;20055;-58
2021/09/24 22:10:44;;;;;;;4.82;3.67;;;;;;;17.03;99.08;101452.03;10496929;28;20056;-60
2021/09/24 22:15:47;;;;;;;4.65;4.20;;;;;;;16.80;99.53;101459.84;10503644;28;20496;-57
2021/09/24 22:20:50;;;;;;;5.80;4.07;;;;;;;16.87;99.01;101441.78;10504288;28;20544;-59
2021/09/24 22:25:52;;;;;;;4.88;4.47;;;;;;;16.79;100.00;101436.16;10504565;28;20044;-59
2021/09/24 22:30:54;;;;;;;6.43;4.05;;;;;;;16.89;99.50;101430.13;10504257;28;20056;-58
2021/09/24 22:35:57;;;;;;;4.63;4.18;;;;;;;16.81;100.00;101427.19;10504334;28;20053;-58
2021/09/24 22:40:59;;;;;;;4.75;4.32;;;;;;;16.80;100.00;101425.47;10503549;28;20049;-59
2021/09/24 22:46:02;;;;;;;5.28;4.00;;;;;;;16.79;100.00;101433.53;10503950;28;20048;-59